MMSD/SJD METAR and TAF weather

Enter ICAO airport designator
Station Type Date Time Source
MMSD METAR 2019/05/26 01:40 UTC NOAA

MMSD 260140Z 16003KT 12SM SKC 26/10 A2984 RMK CI


Station Type Date Time Source
MMSD Decoded METAR 2019/05/26 01:40 UTC NOAA

San Jose Del Cabo , Mexico (MMSD) 23-09N 109-42W
May 25, 2019 - 09:40 PM EDT / 2019.05.26 0140 UTC
Wind: from the SSE (160 degrees) at 3 MPH (3 KT):0
Visibility: 12 mile(s):0
Sky conditions: clear
Temperature: 78 F (26 C)
Dew Point: 50 F (10 C)
Relative Humidity: 36%
Pressure (altimeter): 29.84 in. Hg (1010 hPa)
ob: MMSD 260140Z 16003KT 12SM SKC 26/10 A2984 RMK CI
cycle: 1

Station Type Date Time Source
MMSD TAF 2019/05/25 18:57 UTC NOAA

TAF TAF MMSD 251654Z 2518/2618 13010KT P6SM SCT250
BECMG 2520/2521 13015KT SCT040
FM260200 28006KT P6SM SCT250
BECMG 2605/2606 00000KT
FM261800 13010KT P6SM BKN250

Example: see airport list